Terminal Aerodrome Forecast
Issued by NWS

Home | Current Version | Previous Version | Text Only | Print | Product List | Glossary On
Versions: 1 2 3 4 5 6 7 8 9 10 11 12 13 14 15 16 17 18 19 20 21
000
FTUS43 KIND 230520
TAFLAF
TAF
KLAF 230520Z 2306/2406 20007KT P6SM SCT120
     FM231100 23005KT 4SM BR BKN030
     FM231600 26004KT P6SM BKN035
     FM231900 18004KT P6SM BKN050
     FM232100 08005KT P6SM VCSH OVC035
     FM232300 07005KT 6SM BR VCSH OVC030
     FM240000 07005KT 5SM BR OVC025
     FM240200 09006KT 5SM BR OVC015
     FM240500 14007KT 5SM BR OVC010
      AMD LTD TO CLD VIS AND WIND TIL 231400=

USA.gov is the U.S. government's official web portal to all federal, state and local government web resources and services.